sensor_id;sensor_type;location;lat;lon;timestamp;P1;durP1;ratioP1;P2;durP2;ratioP2
2674;SDS011;1347;42.122;24.746;2023-04-16T00:01:54;10.43;;;3.50;;
2674;SDS011;1347;42.122;24.746;2023-04-16T00:04:21;4.37;;;2.90;;
2674;SDS011;1347;42.122;24.746;2023-04-16T00:06:50;4.93;;;3.40;;
2674;SDS011;1347;42.122;24.746;2023-04-16T00:09:17;5.47;;;3.13;;
2674;SDS011;1347;42.122;24.746;2023-04-16T00:11:44;6.93;;;3.47;;
2674;SDS011;1347;42.122;24.746;2023-04-16T00:14:10;8.00;;;3.00;;
2674;SDS011;1347;42.122;24.746;2023-04-16T00:16:37;6.40;;;4.20;;
2674;SDS011;1347;42.122;24.746;2023-04-16T00:19:04;5.70;;;3.37;;
2674;SDS011;1347;42.122;24.746;2023-04-16T00:21:31;3.97;;;2.60;;
2674;SDS011;1347;42.122;24.746;2023-04-16T00:23:59;5.90;;;2.70;;
2674;SDS011;1347;42.122;24.746;2023-04-16T00:26:26;6.63;;;3.00;;
2674;SDS011;1347;42.122;24.746;2023-04-16T00:28:53;11.03;;;4.53;;
2674;SDS011;1347;42.122;24.746;2023-04-16T00:31:25;8.77;;;2.90;;
2674;SDS011;1347;42.122;24.746;2023-04-16T00:33:53;8.60;;;3.47;;
2674;SDS011;1347;42.122;24.746;2023-04-16T00:36:20;9.93;;;3.27;;
2674;SDS011;1347;42.122;24.746;2023-04-16T00:38:47;6.13;;;2.73;;
2674;SDS011;1347;42.122;24.746;2023-04-16T00:41:15;8.70;;;3.40;;
2674;SDS011;1347;42.122;24.746;2023-04-16T00:43:42;5.67;;;2.73;;
2674;SDS011;1347;42.122;24.746;2023-04-16T00:46:09;9.83;;;2.90;;
2674;SDS011;1347;42.122;24.746;2023-04-16T00:48:37;6.20;;;3.43;;
2674;SDS011;1347;42.122;24.746;2023-04-16T00:51:06;5.00;;;2.60;;
2674;SDS011;1347;42.122;24.746;2023-04-16T00:53:33;6.03;;;3.40;;
2674;SDS011;1347;42.122;24.746;2023-04-16T00:56:01;6.93;;;3.93;;
2674;SDS011;1347;42.122;24.746;2023-04-16T00:58:31;13.90;;;3.57;;
2674;SDS011;1347;42.122;24.746;2023-04-16T01:00:58;6.27;;;3.37;;
2674;SDS011;1347;42.122;24.746;2023-04-16T01:03:29;6.37;;;3.50;;
2674;SDS011;1347;42.122;24.746;2023-04-16T01:06:04;5.80;;;3.13;;
2674;SDS011;1347;42.122;24.746;2023-04-16T01:08:32;6.63;;;3.27;;
2674;SDS011;1347;42.122;24.746;2023-04-16T01:10:59;8.10;;;4.37;;
2674;SDS011;1347;42.122;24.746;2023-04-16T01:13:26;10.73;;;4.13;;
2674;SDS011;1347;42.122;24.746;2023-04-16T01:15:54;6.70;;;3.47;;
2674;SDS011;1347;42.122;24.746;2023-04-16T01:18:21;8.13;;;3.37;;
2674;SDS011;1347;42.122;24.746;2023-04-16T01:20:50;6.47;;;3.87;;
2674;SDS011;1347;42.122;24.746;2023-04-16T01:23:17;6.30;;;3.10;;
2674;SDS011;1347;42.122;24.746;2023-04-16T01:25:45;9.10;;;3.60;;
2674;SDS011;1347;42.122;24.746;2023-04-16T01:28:12;6.87;;;3.47;;
2674;SDS011;1347;42.122;24.746;2023-04-16T01:30:39;6.47;;;4.63;;
2674;SDS011;1347;42.122;24.746;2023-04-16T01:33:07;3.97;;;3.57;;
2674;SDS011;1347;42.122;24.746;2023-04-16T01:35:34;3.90;;;3.47;;
2674;SDS011;1347;42.122;24.746;2023-04-16T01:38:02;6.20;;;3.67;;
2674;SDS011;1347;42.122;24.746;2023-04-16T01:40:31;5.03;;;4.03;;
2674;SDS011;1347;42.122;24.746;2023-04-16T01:42:58;8.67;;;4.03;;
2674;SDS011;1347;42.122;24.746;2023-04-16T01:45:25;11.13;;;4.03;;
2674;SDS011;1347;42.122;24.746;2023-04-16T01:47:52;11.63;;;4.17;;
2674;SDS011;1347;42.122;24.746;2023-04-16T01:50:20;6.70;;;3.90;;
2674;SDS011;1347;42.122;24.746;2023-04-16T01:52:47;5.60;;;3.73;;
2674;SDS011;1347;42.122;24.746;2023-04-16T01:55:16;7.33;;;3.83;;
2674;SDS011;1347;42.122;24.746;2023-04-16T01:57:43;5.13;;;3.93;;
2674;SDS011;1347;42.122;24.746;2023-04-16T02:00:10;7.53;;;4.10;;
2674;SDS011;1347;42.122;24.746;2023-04-16T02:02:37;6.17;;;4.07;;
2674;SDS011;1347;42.122;24.746;2023-04-16T02:05:05;6.90;;;4.30;;
2674;SDS011;1347;42.122;24.746;2023-04-16T02:07:32;9.60;;;3.90;;
2674;SDS011;1347;42.122;24.746;2023-04-16T02:09:59;5.80;;;3.80;;
2674;SDS011;1347;42.122;24.746;2023-04-16T02:12:27;9.03;;;4.83;;
2674;SDS011;1347;42.122;24.746;2023-04-16T02:14:55;5.53;;;4.23;;
2674;SDS011;1347;42.122;24.746;2023-04-16T02:17:21;5.27;;;4.03;;
2674;SDS011;1347;42.122;24.746;2023-04-16T02:19:48;8.00;;;4.03;;
2674;SDS011;1347;42.122;24.746;2023-04-16T02:22:15;11.93;;;5.10;;
2674;SDS011;1347;42.122;24.746;2023-04-16T02:24:42;4.70;;;4.20;;
2674;SDS011;1347;42.122;24.746;2023-04-16T02:27:09;6.27;;;4.60;;
2674;SDS011;1347;42.122;24.746;2023-04-16T02:29:37;8.60;;;4.00;;
2674;SDS011;1347;42.122;24.746;2023-04-16T02:32:04;6.63;;;5.53;;
2674;SDS011;1347;42.122;24.746;2023-04-16T02:34:31;8.67;;;4.53;;
2674;SDS011;1347;42.122;24.746;2023-04-16T02:36:59;7.10;;;4.13;;
2674;SDS011;1347;42.122;24.746;2023-04-16T02:39:26;8.33;;;4.80;;
2674;SDS011;1347;42.122;24.746;2023-04-16T02:41:53;6.40;;;4.70;;
2674;SDS011;1347;42.122;24.746;2023-04-16T02:44:20;8.80;;;4.93;;
2674;SDS011;1347;42.122;24.746;2023-04-16T02:46:48;5.33;;;3.87;;
2674;SDS011;1347;42.122;24.746;2023-04-16T02:49:15;10.20;;;5.20;;
2674;SDS011;1347;42.122;24.746;2023-04-16T02:51:42;9.57;;;5.03;;
2674;SDS011;1347;42.122;24.746;2023-04-16T02:54:09;5.70;;;4.40;;
2674;SDS011;1347;42.122;24.746;2023-04-16T02:56:36;10.50;;;5.50;;
2674;SDS011;1347;42.122;24.746;2023-04-16T02:59:03;11.40;;;5.27;;
2674;SDS011;1347;42.122;24.746;2023-04-16T03:01:30;9.53;;;5.80;;
2674;SDS011;1347;42.122;24.746;2023-04-16T03:03:58;6.80;;;4.53;;
2674;SDS011;1347;42.122;24.746;2023-04-16T03:06:25;9.80;;;5.27;;
2674;SDS011;1347;42.122;24.746;2023-04-16T03:08:52;6.87;;;5.50;;
2674;SDS011;1347;42.122;24.746;2023-04-16T03:11:19;10.23;;;5.43;;
2674;SDS011;1347;42.122;24.746;2023-04-16T03:13:46;10.63;;;5.63;;
2674;SDS011;1347;42.122;24.746;2023-04-16T03:16:12;7.43;;;5.97;;
2674;SDS011;1347;42.122;24.746;2023-04-16T03:18:40;7.50;;;5.90;;
2674;SDS011;1347;42.122;24.746;2023-04-16T03:21:08;8.47;;;6.13;;
2674;SDS011;1347;42.122;24.746;2023-04-16T03:23:35;9.70;;;5.63;;
2674;SDS011;1347;42.122;24.746;2023-04-16T03:26:02;9.90;;;7.00;;
2674;SDS011;1347;42.122;24.746;2023-04-16T03:28:29;11.70;;;6.57;;
2674;SDS011;1347;42.122;24.746;2023-04-16T03:30:56;11.40;;;6.87;;
2674;SDS011;1347;42.122;24.746;2023-04-16T03:33:23;11.17;;;6.10;;
2674;SDS011;1347;42.122;24.746;2023-04-16T03:35:56;16.73;;;6.57;;
2674;SDS011;1347;42.122;24.746;2023-04-16T03:38:25;10.30;;;6.97;;
2674;SDS011;1347;42.122;24.746;2023-04-16T03:40:52;9.63;;;6.67;;
2674;SDS011;1347;42.122;24.746;2023-04-16T03:43:19;9.10;;;6.30;;
2674;SDS011;1347;42.122;24.746;2023-04-16T03:45:46;10.90;;;6.00;;
2674;SDS011;1347;42.122;24.746;2023-04-16T03:48:13;12.90;;;5.97;;
2674;SDS011;1347;42.122;24.746;2023-04-16T03:50:43;10.33;;;5.10;;
2674;SDS011;1347;42.122;24.746;2023-04-16T03:53:11;9.50;;;6.10;;
2674;SDS011;1347;42.122;24.746;2023-04-16T03:55:40;8.90;;;7.00;;
2674;SDS011;1347;42.122;24.746;2023-04-16T03:58:07;13.80;;;6.70;;
2674;SDS011;1347;42.122;24.746;2023-04-16T04:00:34;11.77;;;7.50;;
2674;SDS011;1347;42.122;24.746;2023-04-16T04:03:00;12.70;;;8.27;;
2674;SDS011;1347;42.122;24.746;2023-04-16T04:05:27;11.17;;;7.70;;
2674;SDS011;1347;42.122;24.746;2023-04-16T04:07:54;13.10;;;8.00;;
2674;SDS011;1347;42.122;24.746;2023-04-16T04:10:21;13.63;;;7.87;;
2674;SDS011;1347;42.122;24.746;2023-04-16T04:12:50;10.53;;;8.40;;
2674;SDS011;1347;42.122;24.746;2023-04-16T04:15:16;14.00;;;7.27;;
2674;SDS011;1347;42.122;24.746;2023-04-16T04:17:43;9.60;;;7.23;;
2674;SDS011;1347;42.122;24.746;2023-04-16T04:20:11;13.97;;;7.67;;
2674;SDS011;1347;42.122;24.746;2023-04-16T04:22:38;11.60;;;7.87;;
2674;SDS011;1347;42.122;24.746;2023-04-16T04:25:05;14.07;;;8.20;;
2674;SDS011;1347;42.122;24.746;2023-04-16T04:27:32;18.73;;;8.50;;
2674;SDS011;1347;42.122;24.746;2023-04-16T04:30:01;9.03;;;8.00;;
2674;SDS011;1347;42.122;24.746;2023-04-16T04:32:28;13.00;;;8.00;;
2674;SDS011;1347;42.122;24.746;2023-04-16T04:34:55;9.80;;;7.13;;
2674;SDS011;1347;42.122;24.746;2023-04-16T04:37:22;12.27;;;7.90;;
2674;SDS011;1347;42.122;24.746;2023-04-16T04:39:49;12.67;;;8.97;;
2674;SDS011;1347;42.122;24.746;2023-04-16T04:42:16;9.77;;;7.97;;
2674;SDS011;1347;42.122;24.746;2023-04-16T04:44:43;14.30;;;9.63;;
2674;SDS011;1347;42.122;24.746;2023-04-16T04:47:12;9.80;;;8.10;;
2674;SDS011;1347;42.122;24.746;2023-04-16T04:49:39;12.80;;;8.20;;
2674;SDS011;1347;42.122;24.746;2023-04-16T04:52:06;12.03;;;8.00;;
2674;SDS011;1347;42.122;24.746;2023-04-16T04:54:33;7.90;;;7.10;;
2674;SDS011;1347;42.122;24.746;2023-04-16T04:57:00;12.80;;;7.30;;
2674;SDS011;1347;42.122;24.746;2023-04-16T04:59:27;29.07;;;9.57;;
2674;SDS011;1347;42.122;24.746;2023-04-16T05:01:54;10.80;;;7.23;;
2674;SDS011;1347;42.122;24.746;2023-04-16T05:04:22;12.03;;;7.90;;
2674;SDS011;1347;42.122;24.746;2023-04-16T05:06:49;13.93;;;8.80;;
2674;SDS011;1347;42.122;24.746;2023-04-16T05:09:16;9.93;;;7.67;;
2674;SDS011;1347;42.122;24.746;2023-04-16T05:11:43;12.43;;;7.40;;
2674;SDS011;1347;42.122;24.746;2023-04-16T05:14:10;9.43;;;6.90;;
2674;SDS011;1347;42.122;24.746;2023-04-16T05:16:37;11.43;;;8.37;;
2674;SDS011;1347;42.122;24.746;2023-04-16T05:19:04;10.43;;;7.47;;
2674;SDS011;1347;42.122;24.746;2023-04-16T05:21:32;16.20;;;8.20;;
2674;SDS011;1347;42.122;24.746;2023-04-16T05:23:59;10.60;;;7.33;;
2674;SDS011;1347;42.122;24.746;2023-04-16T05:26:26;10.07;;;7.90;;
2674;SDS011;1347;42.122;24.746;2023-04-16T05:28:53;12.20;;;7.30;;
2674;SDS011;1347;42.122;24.746;2023-04-16T05:31:20;15.93;;;6.17;;
2674;SDS011;1347;42.122;24.746;2023-04-16T05:33:47;11.63;;;7.27;;
2674;SDS011;1347;42.122;24.746;2023-04-16T05:36:13;10.63;;;6.70;;
2674;SDS011;1347;42.122;24.746;2023-04-16T05:38:42;7.87;;;5.77;;
2674;SDS011;1347;42.122;24.746;2023-04-16T05:41:09;8.60;;;6.50;;
2674;SDS011;1347;42.122;24.746;2023-04-16T05:43:36;8.80;;;6.37;;
2674;SDS011;1347;42.122;24.746;2023-04-16T05:46:02;11.60;;;6.50;;
2674;SDS011;1347;42.122;24.746;2023-04-16T05:48:30;14.40;;;6.23;;
2674;SDS011;1347;42.122;24.746;2023-04-16T05:50:56;8.57;;;6.10;;
2674;SDS011;1347;42.122;24.746;2023-04-16T05:53:23;8.30;;;5.10;;
2674;SDS011;1347;42.122;24.746;2023-04-16T05:55:52;7.73;;;5.60;;
2674;SDS011;1347;42.122;24.746;2023-04-16T05:58:19;8.03;;;5.40;;
2674;SDS011;1347;42.122;24.746;2023-04-16T06:00:45;7.80;;;5.00;;
2674;SDS011;1347;42.122;24.746;2023-04-16T06:03:12;8.23;;;6.00;;
2674;SDS011;1347;42.122;24.746;2023-04-16T06:05:39;13.33;;;5.17;;
2674;SDS011;1347;42.122;24.746;2023-04-16T06:08:06;9.87;;;5.80;;
2674;SDS011;1347;42.122;24.746;2023-04-16T06:10:33;7.37;;;5.53;;
2674;SDS011;1347;42.122;24.746;2023-04-16T06:13:01;10.33;;;6.40;;
2674;SDS011;1347;42.122;24.746;2023-04-16T06:15:28;8.93;;;6.10;;
2674;SDS011;1347;42.122;24.746;2023-04-16T06:17:55;7.00;;;5.60;;
2674;SDS011;1347;42.122;24.746;2023-04-16T06:20:23;7.80;;;5.33;;
2674;SDS011;1347;42.122;24.746;2023-04-16T06:22:50;5.90;;;5.20;;
2674;SDS011;1347;42.122;24.746;2023-04-16T06:25:17;6.70;;;5.00;;
2674;SDS011;1347;42.122;24.746;2023-04-16T06:27:44;9.27;;;4.33;;
2674;SDS011;1347;42.122;24.746;2023-04-16T06:30:12;7.07;;;4.37;;
2674;SDS011;1347;42.122;24.746;2023-04-16T06:32:40;11.70;;;5.00;;
2674;SDS011;1347;42.122;24.746;2023-04-16T06:35:08;6.40;;;4.40;;
2674;SDS011;1347;42.122;24.746;2023-04-16T06:37:35;8.43;;;4.93;;
2674;SDS011;1347;42.122;24.746;2023-04-16T06:40:02;6.80;;;4.37;;
2674;SDS011;1347;42.122;24.746;2023-04-16T06:42:30;6.73;;;4.63;;
2674;SDS011;1347;42.122;24.746;2023-04-16T06:44:57;5.73;;;4.50;;
2674;SDS011;1347;42.122;24.746;2023-04-16T06:47:26;4.83;;;4.30;;
2674;SDS011;1347;42.122;24.746;2023-04-16T06:49:53;9.57;;;4.70;;
2674;SDS011;1347;42.122;24.746;2023-04-16T06:52:19;6.40;;;5.20;;
2674;SDS011;1347;42.122;24.746;2023-04-16T06:54:46;7.30;;;4.50;;
2674;SDS011;1347;42.122;24.746;2023-04-16T06:57:13;7.40;;;4.50;;
2674;SDS011;1347;42.122;24.746;2023-04-16T06:59:41;8.53;;;4.70;;
2674;SDS011;1347;42.122;24.746;2023-04-16T07:02:08;9.00;;;4.47;;
2674;SDS011;1347;42.122;24.746;2023-04-16T07:04:37;6.27;;;4.30;;
2674;SDS011;1347;42.122;24.746;2023-04-16T07:07:04;7.30;;;3.90;;
2674;SDS011;1347;42.122;24.746;2023-04-16T07:09:31;6.73;;;5.17;;
2674;SDS011;1347;42.122;24.746;2023-04-16T07:11:57;5.80;;;3.63;;
2674;SDS011;1347;42.122;24.746;2023-04-16T07:14:25;8.57;;;5.70;;
2674;SDS011;1347;42.122;24.746;2023-04-16T07:16:51;6.73;;;4.90;;
2674;SDS011;1347;42.122;24.746;2023-04-16T07:19:18;6.03;;;4.10;;
2674;SDS011;1347;42.122;24.746;2023-04-16T07:21:47;6.67;;;4.90;;
2674;SDS011;1347;42.122;24.746;2023-04-16T07:24:14;6.73;;;4.40;;
2674;SDS011;1347;42.122;24.746;2023-04-16T07:26:41;7.63;;;4.30;;
2674;SDS011;1347;42.122;24.746;2023-04-16T07:29:08;6.93;;;4.20;;
2674;SDS011;1347;42.122;24.746;2023-04-16T07:31:35;11.87;;;5.10;;
2674;SDS011;1347;42.122;24.746;2023-04-16T07:34:02;6.90;;;4.13;;
2674;SDS011;1347;42.122;24.746;2023-04-16T07:36:29;5.30;;;4.20;;
2674;SDS011;1347;42.122;24.746;2023-04-16T07:38:57;5.57;;;4.30;;
2674;SDS011;1347;42.122;24.746;2023-04-16T07:41:24;5.60;;;4.27;;
2674;SDS011;1347;42.122;24.746;2023-04-16T07:43:51;11.10;;;4.53;;
2674;SDS011;1347;42.122;24.746;2023-04-16T07:46:18;7.40;;;5.17;;
2674;SDS011;1347;42.122;24.746;2023-04-16T07:48:45;6.27;;;4.20;;
2674;SDS011;1347;42.122;24.746;2023-04-16T07:51:11;5.03;;;4.53;;
2674;SDS011;1347;42.122;24.746;2023-04-16T07:53:39;5.00;;;4.50;;
2674;SDS011;1347;42.122;24.746;2023-04-16T07:56:09;6.70;;;4.30;;
2674;SDS011;1347;42.122;24.746;2023-04-16T07:58:35;7.93;;;4.67;;
2674;SDS011;1347;42.122;24.746;2023-04-16T08:01:02;5.10;;;4.23;;
2674;SDS011;1347;42.122;24.746;2023-04-16T08:03:29;6.60;;;4.50;;
2674;SDS011;1347;42.122;24.746;2023-04-16T08:05:56;9.30;;;4.90;;
2674;SDS011;1347;42.122;24.746;2023-04-16T08:08:23;6.23;;;3.70;;
2674;SDS011;1347;42.122;24.746;2023-04-16T08:10:50;10.20;;;4.40;;
2674;SDS011;1347;42.122;24.746;2023-04-16T08:13:21;10.80;;;6.77;;
2674;SDS011;1347;42.122;24.746;2023-04-16T08:15:48;5.33;;;4.40;;
2674;SDS011;1347;42.122;24.746;2023-04-16T08:18:15;7.83;;;4.27;;
2674;SDS011;1347;42.122;24.746;2023-04-16T08:20:42;8.40;;;4.63;;
2674;SDS011;1347;42.122;24.746;2023-04-16T08:23:09;7.90;;;5.03;;
2674;SDS011;1347;42.122;24.746;2023-04-16T08:25:36;5.97;;;4.40;;
2674;SDS011;1347;42.122;24.746;2023-04-16T08:28:03;7.40;;;4.90;;
2674;SDS011;1347;42.122;24.746;2023-04-16T08:30:32;4.47;;;4.03;;
2674;SDS011;1347;42.122;24.746;2023-04-16T08:32:59;7.90;;;4.47;;
2674;SDS011;1347;42.122;24.746;2023-04-16T08:35:26;15.03;;;5.40;;
2674;SDS011;1347;42.122;24.746;2023-04-16T08:37:53;7.87;;;4.77;;
2674;SDS011;1347;42.122;24.746;2023-04-16T08:40:22;10.50;;;5.60;;
2674;SDS011;1347;42.122;24.746;2023-04-16T08:42:51;10.20;;;5.80;;
2674;SDS011;1347;42.122;24.746;2023-04-16T08:45:20;9.23;;;5.00;;
2674;SDS011;1347;42.122;24.746;2023-04-16T08:47:49;7.00;;;5.30;;
2674;SDS011;1347;42.122;24.746;2023-04-16T08:50:17;9.53;;;5.80;;
2674;SDS011;1347;42.122;24.746;2023-04-16T08:52:49;9.33;;;5.47;;
2674;SDS011;1347;42.122;24.746;2023-04-16T08:55:18;10.17;;;5.60;;
2674;SDS011;1347;42.122;24.746;2023-04-16T08:57:47;7.67;;;5.50;;
2674;SDS011;1347;42.122;24.746;2023-04-16T09:00:19;7.70;;;4.37;;
2674;SDS011;1347;42.122;24.746;2023-04-16T09:02:46;5.77;;;5.10;;
2674;SDS011;1347;42.122;24.746;2023-04-16T09:05:15;8.20;;;5.40;;
2674;SDS011;1347;42.122;24.746;2023-04-16T09:07:45;5.73;;;4.77;;
2674;SDS011;1347;42.122;24.746;2023-04-16T09:10:14;7.00;;;5.43;;
2674;SDS011;1347;42.122;24.746;2023-04-16T09:12:41;8.87;;;4.77;;
2674;SDS011;1347;42.122;24.746;2023-04-16T09:15:09;5.40;;;4.90;;
2674;SDS011;1347;42.122;24.746;2023-04-16T09:17:37;6.10;;;5.47;;
2674;SDS011;1347;42.122;24.746;2023-04-16T09:20:04;5.33;;;4.70;;
2674;SDS011;1347;42.122;24.746;2023-04-16T09:22:34;6.60;;;4.83;;
2674;SDS011;1347;42.122;24.746;2023-04-16T09:25:01;4.67;;;4.27;;
2674;SDS011;1347;42.122;24.746;2023-04-16T09:27:28;6.83;;;4.30;;
2674;SDS011;1347;42.122;24.746;2023-04-16T09:29:56;6.37;;;4.73;;
2674;SDS011;1347;42.122;24.746;2023-04-16T09:32:23;5.30;;;4.00;;
2674;SDS011;1347;42.122;24.746;2023-04-16T09:34:55;5.17;;;3.77;;
2674;SDS011;1347;42.122;24.746;2023-04-16T09:37:24;7.40;;;3.70;;
2674;SDS011;1347;42.122;24.746;2023-04-16T09:39:53;4.57;;;3.50;;
2674;SDS011;1347;42.122;24.746;2023-04-16T09:42:22;6.80;;;3.87;;
2674;SDS011;1347;42.122;24.746;2023-04-16T09:44:51;5.10;;;3.77;;
2674;SDS011;1347;42.122;24.746;2023-04-16T09:47:18;6.77;;;4.50;;
2674;SDS011;1347;42.122;24.746;2023-04-16T09:49:45;5.33;;;3.80;;
2674;SDS011;1347;42.122;24.746;2023-04-16T09:52:13;4.37;;;3.90;;
2674;SDS011;1347;42.122;24.746;2023-04-16T09:54:47;6.07;;;4.70;;
2674;SDS011;1347;42.122;24.746;2023-04-16T09:57:18;5.27;;;3.90;;
2674;SDS011;1347;42.122;24.746;2023-04-16T09:59:46;3.80;;;3.13;;
2674;SDS011;1347;42.122;24.746;2023-04-16T10:02:17;6.97;;;3.33;;
2674;SDS011;1347;42.122;24.746;2023-04-16T10:04:45;5.00;;;3.33;;
2674;SDS011;1347;42.122;24.746;2023-04-16T10:07:13;6.00;;;3.57;;
2674;SDS011;1347;42.122;24.746;2023-04-16T10:09:40;5.27;;;3.07;;
2674;SDS011;1347;42.122;24.746;2023-04-16T10:12:08;4.60;;;3.27;;
2674;SDS011;1347;42.122;24.746;2023-04-16T10:14:38;5.97;;;3.50;;
2674;SDS011;1347;42.122;24.746;2023-04-16T10:17:05;4.23;;;3.83;;
2674;SDS011;1347;42.122;24.746;2023-04-16T10:19:33;6.30;;;3.70;;
2674;SDS011;1347;42.122;24.746;2023-04-16T10:22:00;7.93;;;3.80;;
2674;SDS011;1347;42.122;24.746;2023-04-16T10:24:28;4.23;;;3.30;;
2674;SDS011;1347;42.122;24.746;2023-04-16T10:26:55;6.80;;;3.80;;
2674;SDS011;1347;42.122;24.746;2023-04-16T10:29:23;4.30;;;3.90;;
2674;SDS011;1347;42.122;24.746;2023-04-16T10:31:53;6.37;;;4.13;;
2674;SDS011;1347;42.122;24.746;2023-04-16T10:34:21;3.90;;;3.50;;
2674;SDS011;1347;42.122;24.746;2023-04-16T10:36:50;4.57;;;3.97;;
2674;SDS011;1347;42.122;24.746;2023-04-16T10:39:19;4.53;;;3.70;;
2674;SDS011;1347;42.122;24.746;2023-04-16T10:41:47;4.47;;;4.00;;
2674;SDS011;1347;42.122;24.746;2023-04-16T10:44:15;3.70;;;3.40;;
2674;SDS011;1347;42.122;24.746;2023-04-16T10:46:43;5.70;;;4.30;;
2674;SDS011;1347;42.122;24.746;2023-04-16T10:49:15;6.23;;;4.37;;
2674;SDS011;1347;42.122;24.746;2023-04-16T10:51:53;5.20;;;3.73;;
2674;SDS011;1347;42.122;24.746;2023-04-16T10:54:24;6.20;;;3.80;;
2674;SDS011;1347;42.122;24.746;2023-04-16T10:56:52;5.80;;;4.10;;
2674;SDS011;1347;42.122;24.746;2023-04-16T10:59:21;5.73;;;3.57;;
2674;SDS011;1347;42.122;24.746;2023-04-16T11:01:50;4.93;;;4.20;;
2674;SDS011;1347;42.122;24.746;2023-04-16T11:04:28;4.60;;;3.97;;
2674;SDS011;1347;42.122;24.746;2023-04-16T11:07:00;4.97;;;4.30;;
2674;SDS011;1347;42.122;24.746;2023-04-16T11:09:42;5.87;;;3.90;;
2674;SDS011;1347;42.122;24.746;2023-04-16T11:12:24;4.67;;;3.60;;
2674;SDS011;1347;42.122;24.746;2023-04-16T11:14:53;5.47;;;3.20;;
2674;SDS011;1347;42.122;24.746;2023-04-16T11:17:27;9.70;;;4.07;;
2674;SDS011;1347;42.122;24.746;2023-04-16T11:19:57;7.50;;;4.27;;
2674;SDS011;1347;42.122;24.746;2023-04-16T11:22:24;6.50;;;3.50;;
2674;SDS011;1347;42.122;24.746;2023-04-16T11:24:53;6.60;;;3.20;;
2674;SDS011;1347;42.122;24.746;2023-04-16T11:27:21;6.50;;;3.73;;
2674;SDS011;1347;42.122;24.746;2023-04-16T11:29:55;5.97;;;3.30;;
2674;SDS011;1347;42.122;24.746;2023-04-16T11:32:23;10.20;;;4.70;;
2674;SDS011;1347;42.122;24.746;2023-04-16T11:34:50;7.87;;;3.70;;
2674;SDS011;1347;42.122;24.746;2023-04-16T11:37:20;6.63;;;3.63;;
2674;SDS011;1347;42.122;24.746;2023-04-16T11:39:57;10.23;;;4.97;;
2674;SDS011;1347;42.122;24.746;2023-04-16T11:42:24;7.60;;;4.07;;
2674;SDS011;1347;42.122;24.746;2023-04-16T11:44:53;9.33;;;4.33;;
2674;SDS011;1347;42.122;24.746;2023-04-16T11:47:21;12.13;;;5.30;;
2674;SDS011;1347;42.122;24.746;2023-04-16T11:49:48;9.20;;;5.20;;
2674;SDS011;1347;42.122;24.746;2023-04-16T11:52:26;11.30;;;4.87;;
2674;SDS011;1347;42.122;24.746;2023-04-16T11:54:54;11.13;;;5.17;;
2674;SDS011;1347;42.122;24.746;2023-04-16T11:57:25;8.70;;;4.13;;
2674;SDS011;1347;42.122;24.746;2023-04-16T11:59:53;9.83;;;4.13;;
2674;SDS011;1347;42.122;24.746;2023-04-16T12:07:56;10.27;;;4.63;;
2674;SDS011;1347;42.122;24.746;2023-04-16T12:10:24;10.00;;;4.53;;
2674;SDS011;1347;42.122;24.746;2023-04-16T12:12:51;11.67;;;5.83;;
2674;SDS011;1347;42.122;24.746;2023-04-16T12:15:18;9.50;;;4.67;;
2674;SDS011;1347;42.122;24.746;2023-04-16T12:17:45;11.80;;;4.53;;
2674;SDS011;1347;42.122;24.746;2023-04-16T12:20:13;15.67;;;5.13;;
2674;SDS011;1347;42.122;24.746;2023-04-16T12:22:42;9.30;;;5.37;;
2674;SDS011;1347;42.122;24.746;2023-04-16T12:25:12;12.33;;;5.07;;
2674;SDS011;1347;42.122;24.746;2023-04-16T12:27:41;10.37;;;5.93;;
2674;SDS011;1347;42.122;24.746;2023-04-16T12:30:11;15.63;;;5.60;;
2674;SDS011;1347;42.122;24.746;2023-04-16T12:32:39;10.80;;;5.23;;
2674;SDS011;1347;42.122;24.746;2023-04-16T12:35:07;9.93;;;5.57;;
2674;SDS011;1347;42.122;24.746;2023-04-16T12:37:35;9.60;;;5.00;;
2674;SDS011;1347;42.122;24.746;2023-04-16T12:40:03;6.63;;;5.10;;
2674;SDS011;1347;42.122;24.746;2023-04-16T12:42:32;11.53;;;5.80;;
2674;SDS011;1347;42.122;24.746;2023-04-16T12:45:01;10.33;;;5.47;;
2674;SDS011;1347;42.122;24.746;2023-04-16T12:47:28;10.53;;;6.40;;
2674;SDS011;1347;42.122;24.746;2023-04-16T12:49:55;11.93;;;6.40;;
2674;SDS011;1347;42.122;24.746;2023-04-16T12:52:22;10.50;;;6.60;;
2674;SDS011;1347;42.122;24.746;2023-04-16T12:54:49;10.77;;;5.70;;
2674;SDS011;1347;42.122;24.746;2023-04-16T12:57:16;12.33;;;6.77;;
2674;SDS011;1347;42.122;24.746;2023-04-16T12:59:45;11.43;;;6.23;;
2674;SDS011;1347;42.122;24.746;2023-04-16T13:02:12;7.20;;;5.23;;
2674;SDS011;1347;42.122;24.746;2023-04-16T13:04:39;13.53;;;5.23;;
2674;SDS011;1347;42.122;24.746;2023-04-16T13:07:06;12.50;;;6.17;;
2674;SDS011;1347;42.122;24.746;2023-04-16T13:09:33;7.47;;;5.50;;
2674;SDS011;1347;42.122;24.746;2023-04-16T13:12:00;13.30;;;5.80;;
2674;SDS011;1347;42.122;24.746;2023-04-16T13:14:26;7.63;;;5.80;;
2674;SDS011;1347;42.122;24.746;2023-04-16T13:16:55;10.33;;;5.67;;
2674;SDS011;1347;42.122;24.746;2023-04-16T13:19:22;9.10;;;5.33;;
2674;SDS011;1347;42.122;24.746;2023-04-16T13:21:48;8.20;;;5.10;;
2674;SDS011;1347;42.122;24.746;2023-04-16T13:24:15;8.03;;;3.93;;
2674;SDS011;1347;42.122;24.746;2023-04-16T13:26:43;5.87;;;3.30;;
2674;SDS011;1347;42.122;24.746;2023-04-16T13:29:10;6.83;;;5.57;;
2674;SDS011;1347;42.122;24.746;2023-04-16T13:31:37;8.13;;;4.57;;
2674;SDS011;1347;42.122;24.746;2023-04-16T13:34:05;6.10;;;3.90;;
2674;SDS011;1347;42.122;24.746;2023-04-16T13:36:32;9.30;;;4.40;;
2674;SDS011;1347;42.122;24.746;2023-04-16T13:38:59;6.93;;;4.17;;
2674;SDS011;1347;42.122;24.746;2023-04-16T13:41:28;4.00;;;3.10;;
2674;SDS011;1347;42.122;24.746;2023-04-16T13:43:55;6.87;;;2.80;;
2674;SDS011;1347;42.122;24.746;2023-04-16T13:46:23;4.40;;;3.40;;
2674;SDS011;1347;42.122;24.746;2023-04-16T13:48:50;6.07;;;3.60;;
2674;SDS011;1347;42.122;24.746;2023-04-16T13:51:19;7.60;;;4.43;;
2674;SDS011;1347;42.122;24.746;2023-04-16T13:53:46;6.13;;;4.83;;
2674;SDS011;1347;42.122;24.746;2023-04-16T13:56:13;8.33;;;3.90;;
2674;SDS011;1347;42.122;24.746;2023-04-16T13:58:40;6.13;;;3.50;;
2674;SDS011;1347;42.122;24.746;2023-04-16T14:01:07;4.80;;;4.40;;
2674;SDS011;1347;42.122;24.746;2023-04-16T14:03:35;7.60;;;3.60;;
2674;SDS011;1347;42.122;24.746;2023-04-16T14:06:03;6.77;;;4.67;;
2674;SDS011;1347;42.122;24.746;2023-04-16T14:08:32;4.57;;;4.03;;
2674;SDS011;1347;42.122;24.746;2023-04-16T14:10:59;4.20;;;3.60;;
2674;SDS011;1347;42.122;24.746;2023-04-16T14:13:26;5.97;;;4.70;;
2674;SDS011;1347;42.122;24.746;2023-04-16T14:15:53;7.00;;;5.30;;
2674;SDS011;1347;42.122;24.746;2023-04-16T14:18:20;7.63;;;3.60;;
2674;SDS011;1347;42.122;24.746;2023-04-16T14:20:47;9.53;;;4.30;;
2674;SDS011;1347;42.122;24.746;2023-04-16T14:23:14;10.70;;;5.70;;
2674;SDS011;1347;42.122;24.746;2023-04-16T14:25:42;6.73;;;4.73;;
2674;SDS011;1347;42.122;24.746;2023-04-16T14:28:09;8.40;;;5.13;;
2674;SDS011;1347;42.122;24.746;2023-04-16T14:30:36;5.37;;;4.37;;
2674;SDS011;1347;42.122;24.746;2023-04-16T14:33:03;10.87;;;5.40;;
2674;SDS011;1347;42.122;24.746;2023-04-16T14:35:31;7.83;;;5.17;;
2674;SDS011;1347;42.122;24.746;2023-04-16T14:37:58;7.57;;;4.70;;
2674;SDS011;1347;42.122;24.746;2023-04-16T14:40:25;7.57;;;5.03;;
2674;SDS011;1347;42.122;24.746;2023-04-16T14:42:53;7.80;;;5.50;;
2674;SDS011;1347;42.122;24.746;2023-04-16T14:45:20;9.83;;;5.30;;
2674;SDS011;1347;42.122;24.746;2023-04-16T14:47:49;7.73;;;5.20;;
2674;SDS011;1347;42.122;24.746;2023-04-16T14:50:16;9.17;;;4.83;;
2674;SDS011;1347;42.122;24.746;2023-04-16T14:52:43;10.23;;;6.43;;
2674;SDS011;1347;42.122;24.746;2023-04-16T14:55:10;7.53;;;5.03;;
2674;SDS011;1347;42.122;24.746;2023-04-16T14:57:37;8.17;;;5.07;;
2674;SDS011;1347;42.122;24.746;2023-04-16T15:00:07;9.33;;;5.20;;
2674;SDS011;1347;42.122;24.746;2023-04-16T15:02:35;8.50;;;5.33;;
2674;SDS011;1347;42.122;24.746;2023-04-16T15:05:03;6.87;;;5.27;;
2674;SDS011;1347;42.122;24.746;2023-04-16T15:07:31;8.83;;;5.67;;